Map

Track Data

SID SEASON NUMBER BASIN SUBBASIN NAME ISO_TIME NATURE LAT LON WMO_WIND WMO_PRES WMO_AGENCY TRACK_TYPE DIST2LAND LANDFALL IFLAG USA_AGENCY USA_ATCF_ID USA_LAT USA_LON USA_RECORD USA_STATUS USA_WIND USA_PRES USA_SSHS USA_R34_NE USA_R34_SE USA_R34_SW USA_R34_NW USA_R50_NE USA_R50_SE USA_R50_SW USA_R50_NW USA_R64_NE USA_R64_SE USA_R64_SW USA_R64_NW USA_POCI USA_ROCI USA_RMW USA_EYE TOKYO_LAT TOKYO_LON TOKYO_GRADE TOKYO_WIND TOKYO_PRES TOKYO_R50_DIR TOKYO_R50_LONG TOKYO_R50_SHORT TOKYO_R30_DIR TOKYO_R30_LONG TOKYO_R30_SHORT TOKYO_LAND CMA_LAT CMA_LON CMA_CAT CMA_WIND CMA_PRES HKO_LAT HKO_LON HKO_CAT HKO_WIND HKO_PRES NEWDELHI_LAT NEWDELHI_LON NEWDELHI_GRADE NEWDELHI_WIND NEWDELHI_PRES NEWDELHI_CI NEWDELHI_DP NEWDELHI_POCI REUNION_LAT REUNION_LON REUNION_TYPE REUNION_WIND REUNION_PRES REUNION_TNUM REUNION_CI REUNION_RMW REUNION_R34_NE REUNION_R34_SE REUNION_R34_SW REUNION_R34_NW REUNION_R50_NE REUNION_R50_SE REUNION_R50_SW REUNION_R50_NW REUNION_R64_NE REUNION_R64_SE REUNION_R64_SW REUNION_R64_NW BOM_LAT BOM_LON BOM_TYPE BOM_WIND BOM_PRES BOM_TNUM BOM_CI BOM_RMW BOM_R34_NE BOM_R34_SE BOM_R34_SW BOM_R34_NW BOM_R50_NE BOM_R50_SE BOM_R50_SW BOM_R50_NW BOM_R64_NE BOM_R64_SE BOM_R64_SW BOM_R64_NW BOM_ROCI BOM_POCI BOM_EYE BOM_POS_METHOD BOM_PRES_METHOD NADI_LAT NADI_LON NADI_CAT NADI_WIND NADI_PRES WELLINGTON_LAT WELLINGTON_LON WELLINGTON_WIND WELLINGTON_PRES DS824_LAT DS824_LON DS824_STAGE DS824_WIND DS824_PRES TD9636_LAT TD9636_LON TD9636_STAGE TD9636_WIND TD9636_PRES TD9635_LAT TD9635_LON TD9635_WIND TD9635_PRES TD9635_ROCI NEUMANN_LAT NEUMANN_LON NEUMANN_CLASS NEUMANN_WIND NEUMANN_PRES MLC_LAT MLC_LON MLC_CLASS MLC_WIND MLC_PRES USA_GUST BOM_GUST BOM_GUST_PER REUNION_GUST REUNION_GUST_PER USA_SEAHGT USA_SEARAD_NE USA_SEARAD_SE USA_SEARAD_SW USA_SEARAD_NW STORM_SPEED STORM_DIR
1865239N24282 1865 14 NA NA NOT_NAMED 1865-08-26 12:00:00 TS 24.2000 -77.6000 main 32 15 _____________O -1 24.2000 -77.6000 TD 30 5 271
1865239N24282 1865 14 NA NA NOT_NAMED 1865-08-26 15:00:00 TS 24.2051 -77.8500 main 15 0 _____________P -1 24.2051 -77.8500 TD 30 5 270
1865239N24282 1865 14 NA NA NOT_NAMED 1865-08-26 18:00:00 TS 24.2000 -78.1000 main 10 10 _____________O -1 24.2000 -78.1000 TD 30 5 267
1865239N24282 1865 14 NA NA NOT_NAMED 1865-08-26 21:00:00 TS 24.1850 -78.3501 main 30 30 _____________P -1 24.1850 -78.3501 TD 30 5 270
1865239N24282 1865 14 NA NA NOT_NAMED 1865-08-27 00:00:00 TS 24.2000 -78.6000 main 45 45 _____________O -1 24.2000 -78.6000 TD 30 5 283
1865239N24282 1865 14 NA NA NOT_NAMED 1865-08-27 03:00:00 TS 24.2925 -78.8574 main 52 52 _____________P -1 24.2925 -78.8574 TD 32 5 294
1865239N24282 1865 14 NA NA NOT_NAMED 1865-08-27 06:00:00 TS 24.4000 -79.1000 main 64 64 _____________O -1 24.4000 -79.1000 TS 35 4 291
1865239N24282 1865 14 NA NA NOT_NAMED 1865-08-27 09:00:00 TS 24.4424 -79.2927 main 83 81 _____________P -1 24.4424 -79.2927 TS 35 4 285
1865239N24282 1865 14 NA NA NOT_NAMED 1865-08-27 12:00:00 TS 24.5000 -79.5000 main 101 82 _____________O -1 24.5000 -79.5000 TS 35 5 293
1865239N24282 1865 14 NA NA NOT_NAMED 1865-08-27 15:00:00 TS 24.6351 -79.7924 main 82 45 _____________P -1 24.6351 -79.7924 TS 35 6 299
1865239N24282 1865 14 NA NA NOT_NAMED 1865-08-27 18:00:00 TS 24.8000 -80.1000 main 45 24 _____________O -1 24.8000 -80.1000 TS 35 6 302
1865239N24282 1865 14 NA NA NOT_NAMED 1865-08-27 21:00:00 TS 24.9499 -80.3576 main 22 10 _____________P -1 24.9499 -80.3576 TS 35 5 304
1865239N24282 1865 14 NA GM NOT_NAMED 1865-08-28 00:00:00 TS 25.1000 -80.6000 main 10 0 _____________O -1 25.1000 -80.6000 TS 35 5 305
1865239N24282 1865 14 NA NA NOT_NAMED 1865-08-28 03:00:00 TS 25.2575 -80.8500 main 0 0 _____________P -1 25.2575 -80.8500 TS 35 5 304
1865239N24282 1865 14 NA GM NOT_NAMED 1865-08-28 06:00:00 TS 25.4000 -81.1000 main 0 0 _____________O -1 25.4000 -81.1000 TS 35 5 300
1865239N24282 1865 14 NA GM NOT_NAMED 1865-08-28 09:00:00 TS 25.5150 -81.3500 main 20 15 _____________P -1 25.5150 -81.3500 TS 35 5 294
1865239N24282 1865 14 NA GM NOT_NAMED 1865-08-28 12:00:00 TS 25.6000 -81.6000 main 32 24 _____________O -1 25.6000 -81.6000 TS 35 5 288
1865239N24282 1865 14 NA GM NOT_NAMED 1865-08-28 15:00:00 TS 25.6575 -81.8501 main 29 29 _____________P -1 25.6575 -81.8501 TS 35 5 283
1865239N24282 1865 14 NA GM NOT_NAMED 1865-08-28 18:00:00 TS 25.7000 -82.1000 main 45 45 _____________O -1 25.7000 -82.1000 TS 35 5 285
1865239N24282 1865 14 NA GM NOT_NAMED 1865-08-28 21:00:00 TS 25.7876 -82.3949 main 68 68 _____________P -1 25.7876 -82.3949 TS 35 5 283
1865239N24282 1865 14 NA GM NOT_NAMED 1865-08-29 00:00:00 TS 25.8000 -82.6000 main 86 86 _____________O -1 25.8000 -82.6000 TS 35 2 229
1865239N24282 1865 14 NA GM NOT_NAMED 1865-08-29 03:00:00 TS 25.6375 -82.5874 main 96 91 _____________P -1 25.6375 -82.5874 TS 35 4 168
1865239N24282 1865 14 NA GM NOT_NAMED 1865-08-29 06:00:00 TS 25.4000 -82.5000 main 97 97 _____________O -1 25.4000 -82.5000 TS 35 5 169
1865239N24282 1865 14 NA GM NOT_NAMED 1865-08-29 09:00:00 TS 25.1850 -82.4850 main 112 112 _____________P -1 25.1850 -82.4850 TS 35 4 0
1865239N24282 1865 14 NA GM NOT_NAMED 1865-08-29 12:00:00 TS 25.0000 -82.5000 main 128 128 _____________O -1 25.0000 -82.5000 TS 35 3 185
1865239N24282 1865 14 NA GM NOT_NAMED 1865-08-29 15:00:00 TS 24.8850 -82.5350 main 135 135 _____________P -1 24.8850 -82.5350 TS 32 2 205
1865239N24282 1865 14 NA GM NOT_NAMED 1865-08-29 18:00:00 TS 24.8000 -82.6000 main 147 147 _____________O -1 24.8000 -82.6000 TD 30 2 219
1865239N24282 1865 14 NA GM NOT_NAMED 1865-08-29 21:00:00 TS 24.7000 -82.7000 main 161 161 _____________P -1 24.7000 -82.7000 TD 30 3 222
1865239N24282 1865 14 NA GM NOT_NAMED 1865-08-30 00:00:00 TS 24.6000 -82.8000 main 170 159 _____________O -1 24.6000 -82.8000 TD 30 2 216
1865239N24282 1865 14 NA NA NOT_NAMED 1865-08-30 03:00:00 TS 24.5000 -82.8575 main 161 150 _____________P -1 24.5000 -82.8575 TD 30 2 205
1865239N24282 1865 14 NA NA NOT_NAMED 1865-08-30 06:00:00 TS 24.4000 -82.9000 main 150 140 _____________O -1 24.4000 -82.9000 TD 30 2 203
1865239N24282 1865 14 NA NA NOT_NAMED 1865-08-30 09:00:00 TS 24.3000 -82.9475 main 140 133 _____________P -1 24.3000 -82.9475 TD 27 2 205
1865239N24282 1865 14 NA GM NOT_NAMED 1865-08-30 12:00:00 TS 24.2000 -83.0000 main 133 _____________O -1 24.2000 -83.0000 TD 25 2 197

About IBTrACS Database

This database is a web-friendly format of International Best Track Archive for Climate Stewardship (IBTrACS), a global best track data archive curated by NOAA dating back to 1842.

Updated: 2021-11-26